sensor_id;sensor_type;location;lat;lon;timestamp;P1;durP1;ratioP1;P2;durP2;ratioP2
60726;SDS011;46577;49.004;12.120;2023-10-31T00:01:11;5.40;;;4.40;;
60726;SDS011;46577;49.004;12.120;2023-10-31T00:03:37;10.07;;;4.40;;
60726;SDS011;46577;49.004;12.120;2023-10-31T00:06:05;6.20;;;4.67;;
60726;SDS011;46577;49.004;12.120;2023-10-31T00:08:31;8.87;;;5.40;;
60726;SDS011;46577;49.004;12.120;2023-10-31T00:10:57;8.33;;;5.40;;
60726;SDS011;46577;49.004;12.120;2023-10-31T00:13:23;7.87;;;4.50;;
60726;SDS011;46577;49.004;12.120;2023-10-31T00:15:49;7.20;;;4.80;;
60726;SDS011;46577;49.004;12.120;2023-10-31T00:18:15;6.83;;;5.53;;
60726;SDS011;46577;49.004;12.120;2023-10-31T00:20:41;8.70;;;5.17;;
60726;SDS011;46577;49.004;12.120;2023-10-31T00:23:07;4.30;;;3.90;;
60726;SDS011;46577;49.004;12.120;2023-10-31T00:25:33;4.20;;;3.37;;
60726;SDS011;46577;49.004;12.120;2023-10-31T00:27:59;6.63;;;4.20;;
60726;SDS011;46577;49.004;12.120;2023-10-31T00:30:25;7.30;;;3.90;;
60726;SDS011;46577;49.004;12.120;2023-10-31T00:32:51;4.93;;;3.67;;
60726;SDS011;46577;49.004;12.120;2023-10-31T00:35:17;10.00;;;4.40;;
60726;SDS011;46577;49.004;12.120;2023-10-31T00:37:43;5.67;;;3.37;;
60726;SDS011;46577;49.004;12.120;2023-10-31T00:40:09;5.97;;;4.17;;
60726;SDS011;46577;49.004;12.120;2023-10-31T00:42:39;6.60;;;4.03;;
60726;SDS011;46577;49.004;12.120;2023-10-31T00:45:07;12.30;;;4.80;;
60726;SDS011;46577;49.004;12.120;2023-10-31T00:47:33;5.50;;;3.93;;
60726;SDS011;46577;49.004;12.120;2023-10-31T00:49:59;5.50;;;4.20;;
60726;SDS011;46577;49.004;12.120;2023-10-31T00:52:25;8.50;;;4.87;;
60726;SDS011;46577;49.004;12.120;2023-10-31T00:54:51;5.27;;;3.87;;
60726;SDS011;46577;49.004;12.120;2023-10-31T00:57:17;6.03;;;4.40;;
60726;SDS011;46577;49.004;12.120;2023-10-31T00:59:43;7.80;;;5.33;;
60726;SDS011;46577;49.004;12.120;2023-10-31T01:02:09;5.80;;;4.67;;
60726;SDS011;46577;49.004;12.120;2023-10-31T01:04:38;7.33;;;5.50;;
60726;SDS011;46577;49.004;12.120;2023-10-31T01:07:04;7.03;;;5.27;;
60726;SDS011;46577;49.004;12.120;2023-10-31T01:09:30;6.30;;;4.97;;
60726;SDS011;46577;49.004;12.120;2023-10-31T01:11:56;6.10;;;5.03;;
60726;SDS011;46577;49.004;12.120;2023-10-31T01:14:22;4.50;;;4.10;;
60726;SDS011;46577;49.004;12.120;2023-10-31T01:16:48;6.33;;;5.33;;
60726;SDS011;46577;49.004;12.120;2023-10-31T01:19:14;5.50;;;4.60;;
60726;SDS011;46577;49.004;12.120;2023-10-31T01:21:40;5.30;;;4.80;;
60726;SDS011;46577;49.004;12.120;2023-10-31T01:24:06;4.83;;;4.40;;
60726;SDS011;46577;49.004;12.120;2023-10-31T01:26:32;5.40;;;4.77;;
60726;SDS011;46577;49.004;12.120;2023-10-31T01:29:00;5.93;;;3.97;;
60726;SDS011;46577;49.004;12.120;2023-10-31T01:31:26;5.07;;;3.63;;
60726;SDS011;46577;49.004;12.120;2023-10-31T01:33:53;5.43;;;3.40;;
60726;SDS011;46577;49.004;12.120;2023-10-31T01:36:19;7.33;;;4.00;;
60726;SDS011;46577;49.004;12.120;2023-10-31T01:38:45;3.13;;;2.90;;
60726;SDS011;46577;49.004;12.120;2023-10-31T01:41:11;4.00;;;3.67;;
60726;SDS011;46577;49.004;12.120;2023-10-31T01:43:37;3.50;;;3.07;;
60726;SDS011;46577;49.004;12.120;2023-10-31T01:46:04;8.60;;;3.33;;
60726;SDS011;46577;49.004;12.120;2023-10-31T01:48:31;3.53;;;2.80;;
60726;SDS011;46577;49.004;12.120;2023-10-31T01:50:58;4.20;;;2.77;;
60726;SDS011;46577;49.004;12.120;2023-10-31T01:53:24;3.03;;;2.83;;
60726;SDS011;46577;49.004;12.120;2023-10-31T01:55:51;3.03;;;2.70;;
60726;SDS011;46577;49.004;12.120;2023-10-31T01:58:19;3.87;;;2.87;;
60726;SDS011;46577;49.004;12.120;2023-10-31T02:00:46;2.60;;;2.40;;
60726;SDS011;46577;49.004;12.120;2023-10-31T02:03:12;3.07;;;2.77;;
60726;SDS011;46577;49.004;12.120;2023-10-31T02:05:38;2.90;;;2.63;;
60726;SDS011;46577;49.004;12.120;2023-10-31T02:08:05;3.30;;;2.73;;
60726;SDS011;46577;49.004;12.120;2023-10-31T02:10:33;2.63;;;2.43;;
60726;SDS011;46577;49.004;12.120;2023-10-31T02:13:09;3.80;;;3.07;;
60726;SDS011;46577;49.004;12.120;2023-10-31T02:15:35;3.30;;;3.00;;
60726;SDS011;46577;49.004;12.120;2023-10-31T02:18:01;3.60;;;2.00;;
60726;SDS011;46577;49.004;12.120;2023-10-31T02:20:27;3.20;;;2.83;;
60726;SDS011;46577;49.004;12.120;2023-10-31T02:22:53;3.00;;;2.50;;
60726;SDS011;46577;49.004;12.120;2023-10-31T02:25:19;2.17;;;1.97;;
60726;SDS011;46577;49.004;12.120;2023-10-31T02:27:46;2.87;;;2.50;;
60726;SDS011;46577;49.004;12.120;2023-10-31T02:30:12;4.90;;;2.40;;
60726;SDS011;46577;49.004;12.120;2023-10-31T02:32:39;2.53;;;2.33;;
60726;SDS011;46577;49.004;12.120;2023-10-31T02:35:05;2.03;;;1.83;;
60726;SDS011;46577;49.004;12.120;2023-10-31T02:37:31;2.37;;;2.17;;
60726;SDS011;46577;49.004;12.120;2023-10-31T02:39:57;2.80;;;2.00;;
60726;SDS011;46577;49.004;12.120;2023-10-31T02:42:24;3.00;;;1.70;;
60726;SDS011;46577;49.004;12.120;2023-10-31T02:44:50;3.70;;;2.90;;
60726;SDS011;46577;49.004;12.120;2023-10-31T02:47:16;2.10;;;1.73;;
60726;SDS011;46577;49.004;12.120;2023-10-31T02:49:42;1.90;;;1.80;;
60726;SDS011;46577;49.004;12.120;2023-10-31T02:52:08;2.20;;;2.00;;
60726;SDS011;46577;49.004;12.120;2023-10-31T02:54:34;1.90;;;1.80;;
60726;SDS011;46577;49.004;12.120;2023-10-31T02:57:01;2.30;;;1.77;;
60726;SDS011;46577;49.004;12.120;2023-10-31T02:59:27;3.50;;;1.80;;
60726;SDS011;46577;49.004;12.120;2023-10-31T03:01:53;1.70;;;1.60;;
60726;SDS011;46577;49.004;12.120;2023-10-31T03:04:19;2.03;;;1.87;;
60726;SDS011;46577;49.004;12.120;2023-10-31T03:06:45;1.80;;;1.70;;
60726;SDS011;46577;49.004;12.120;2023-10-31T03:09:11;2.37;;;2.17;;
60726;SDS011;46577;49.004;12.120;2023-10-31T03:11:37;3.40;;;2.20;;
60726;SDS011;46577;49.004;12.120;2023-10-31T03:14:03;2.57;;;2.30;;
60726;SDS011;46577;49.004;12.120;2023-10-31T03:16:29;2.23;;;2.03;;
60726;SDS011;46577;49.004;12.120;2023-10-31T03:18:55;1.80;;;1.70;;
60726;SDS011;46577;49.004;12.120;2023-10-31T03:21:21;2.50;;;2.00;;
60726;SDS011;46577;49.004;12.120;2023-10-31T03:23:48;3.47;;;1.53;;
60726;SDS011;46577;49.004;12.120;2023-10-31T03:26:15;1.83;;;1.43;;
60726;SDS011;46577;49.004;12.120;2023-10-31T03:28:42;1.47;;;1.20;;
60726;SDS011;46577;49.004;12.120;2023-10-31T03:31:08;1.57;;;1.47;;
60726;SDS011;46577;49.004;12.120;2023-10-31T03:33:34;1.50;;;1.40;;
60726;SDS011;46577;49.004;12.120;2023-10-31T03:36:00;1.93;;;1.80;;
60726;SDS011;46577;49.004;12.120;2023-10-31T03:38:26;2.00;;;1.83;;
60726;SDS011;46577;49.004;12.120;2023-10-31T03:40:53;2.13;;;1.63;;
60726;SDS011;46577;49.004;12.120;2023-10-31T03:43:19;2.03;;;1.67;;
60726;SDS011;46577;49.004;12.120;2023-10-31T03:45:48;1.73;;;1.60;;
60726;SDS011;46577;49.004;12.120;2023-10-31T03:48:15;1.63;;;1.50;;
60726;SDS011;46577;49.004;12.120;2023-10-31T03:50:41;2.00;;;1.80;;
60726;SDS011;46577;49.004;12.120;2023-10-31T03:53:08;1.80;;;1.43;;
60726;SDS011;46577;49.004;12.120;2023-10-31T03:55:34;1.87;;;1.57;;
60726;SDS011;46577;49.004;12.120;2023-10-31T03:58:00;2.63;;;1.77;;
60726;SDS011;46577;49.004;12.120;2023-10-31T04:00:26;1.50;;;1.30;;
60726;SDS011;46577;49.004;12.120;2023-10-31T04:02:52;1.97;;;1.60;;
60726;SDS011;46577;49.004;12.120;2023-10-31T04:05:18;4.53;;;1.53;;
60726;SDS011;46577;49.004;12.120;2023-10-31T04:07:47;1.27;;;1.00;;
60726;SDS011;46577;49.004;12.120;2023-10-31T04:10:13;2.20;;;1.40;;
60726;SDS011;46577;49.004;12.120;2023-10-31T04:12:39;1.10;;;1.00;;
60726;SDS011;46577;49.004;12.120;2023-10-31T04:15:05;1.03;;;0.90;;
60726;SDS011;46577;49.004;12.120;2023-10-31T04:17:31;1.70;;;0.80;;
60726;SDS011;46577;49.004;12.120;2023-10-31T04:19:57;2.93;;;0.80;;
60726;SDS011;46577;49.004;12.120;2023-10-31T04:22:23;0.80;;;0.80;;
60726;SDS011;46577;49.004;12.120;2023-10-31T04:24:49;4.23;;;0.70;;
60726;SDS011;46577;49.004;12.120;2023-10-31T04:27:15;0.83;;;0.60;;
60726;SDS011;46577;49.004;12.120;2023-10-31T04:29:41;0.63;;;0.63;;
60726;SDS011;46577;49.004;12.120;2023-10-31T04:32:07;3.67;;;0.60;;
60726;SDS011;46577;49.004;12.120;2023-10-31T04:34:33;2.30;;;0.60;;
60726;SDS011;46577;49.004;12.120;2023-10-31T04:36:59;0.93;;;0.80;;
60726;SDS011;46577;49.004;12.120;2023-10-31T04:39:25;1.30;;;0.70;;
60726;SDS011;46577;49.004;12.120;2023-10-31T04:41:52;1.27;;;0.60;;
60726;SDS011;46577;49.004;12.120;2023-10-31T04:44:18;0.90;;;0.70;;
60726;SDS011;46577;49.004;12.120;2023-10-31T04:46:44;0.90;;;0.60;;
60726;SDS011;46577;49.004;12.120;2023-10-31T04:49:10;5.47;;;0.60;;
60726;SDS011;46577;49.004;12.120;2023-10-31T04:51:36;1.73;;;0.70;;
60726;SDS011;46577;49.004;12.120;2023-10-31T04:54:02;0.70;;;0.60;;
60726;SDS011;46577;49.004;12.120;2023-10-31T04:56:28;0.60;;;0.60;;
60726;SDS011;46577;49.004;12.120;2023-10-31T04:58:54;1.47;;;0.70;;
60726;SDS011;46577;49.004;12.120;2023-10-31T05:01:20;0.60;;;0.60;;
60726;SDS011;46577;49.004;12.120;2023-10-31T05:03:46;0.63;;;0.60;;
60726;SDS011;46577;49.004;12.120;2023-10-31T05:06:12;1.17;;;0.80;;
60726;SDS011;46577;49.004;12.120;2023-10-31T05:08:38;6.40;;;0.80;;
60726;SDS011;46577;49.004;12.120;2023-10-31T05:11:04;0.70;;;0.70;;
60726;SDS011;46577;49.004;12.120;2023-10-31T05:13:30;0.93;;;0.80;;
60726;SDS011;46577;49.004;12.120;2023-10-31T05:15:56;4.10;;;0.90;;
60726;SDS011;46577;49.004;12.120;2023-10-31T05:18:22;1.33;;;0.60;;
60726;SDS011;46577;49.004;12.120;2023-10-31T05:20:49;0.60;;;0.60;;
60726;SDS011;46577;49.004;12.120;2023-10-31T05:23:15;0.73;;;0.60;;
60726;SDS011;46577;49.004;12.120;2023-10-31T05:25:41;0.80;;;0.50;;
60726;SDS011;46577;49.004;12.120;2023-10-31T05:28:08;2.40;;;0.80;;
60726;SDS011;46577;49.004;12.120;2023-10-31T05:30:34;2.83;;;0.90;;
60726;SDS011;46577;49.004;12.120;2023-10-31T05:33:00;3.63;;;0.70;;
60726;SDS011;46577;49.004;12.120;2023-10-31T05:35:26;1.20;;;0.60;;
60726;SDS011;46577;49.004;12.120;2023-10-31T05:37:52;0.77;;;0.60;;
60726;SDS011;46577;49.004;12.120;2023-10-31T05:40:18;1.33;;;0.60;;
60726;SDS011;46577;49.004;12.120;2023-10-31T05:42:47;0.90;;;0.67;;
60726;SDS011;46577;49.004;12.120;2023-10-31T05:45:13;0.70;;;0.70;;
60726;SDS011;46577;49.004;12.120;2023-10-31T05:47:39;2.30;;;0.80;;
60726;SDS011;46577;49.004;12.120;2023-10-31T05:50:05;2.30;;;1.67;;
60726;SDS011;46577;49.004;12.120;2023-10-31T05:52:31;0.97;;;0.83;;
60726;SDS011;46577;49.004;12.120;2023-10-31T05:54:58;1.23;;;0.80;;
60726;SDS011;46577;49.004;12.120;2023-10-31T05:57:24;1.13;;;1.00;;
60726;SDS011;46577;49.004;12.120;2023-10-31T05:59:50;1.47;;;0.80;;
60726;SDS011;46577;49.004;12.120;2023-10-31T06:02:16;2.23;;;0.70;;
60726;SDS011;46577;49.004;12.120;2023-10-31T06:04:42;3.03;;;1.00;;
60726;SDS011;46577;49.004;12.120;2023-10-31T06:07:10;7.07;;;0.90;;
60726;SDS011;46577;49.004;12.120;2023-10-31T06:09:36;1.57;;;1.47;;
60726;SDS011;46577;49.004;12.120;2023-10-31T06:12:02;1.23;;;0.80;;
60726;SDS011;46577;49.004;12.120;2023-10-31T06:14:28;4.30;;;0.80;;
60726;SDS011;46577;49.004;12.120;2023-10-31T06:16:54;2.67;;;1.07;;
60726;SDS011;46577;49.004;12.120;2023-10-31T06:19:21;0.97;;;0.97;;
60726;SDS011;46577;49.004;12.120;2023-10-31T06:21:47;1.27;;;0.90;;
60726;SDS011;46577;49.004;12.120;2023-10-31T06:24:13;2.97;;;0.80;;
60726;SDS011;46577;49.004;12.120;2023-10-31T06:26:39;3.63;;;0.90;;
60726;SDS011;46577;49.004;12.120;2023-10-31T06:29:05;6.33;;;1.10;;
60726;SDS011;46577;49.004;12.120;2023-10-31T06:31:31;1.17;;;0.60;;
60726;SDS011;46577;49.004;12.120;2023-10-31T06:33:57;1.07;;;0.80;;
60726;SDS011;46577;49.004;12.120;2023-10-31T06:36:23;1.87;;;0.80;;
60726;SDS011;46577;49.004;12.120;2023-10-31T06:38:49;2.30;;;0.90;;
60726;SDS011;46577;49.004;12.120;2023-10-31T06:41:15;2.23;;;1.00;;
60726;SDS011;46577;49.004;12.120;2023-10-31T06:43:41;1.53;;;1.43;;
60726;SDS011;46577;49.004;12.120;2023-10-31T06:46:07;2.90;;;1.10;;
60726;SDS011;46577;49.004;12.120;2023-10-31T06:48:34;2.97;;;1.40;;
60726;SDS011;46577;49.004;12.120;2023-10-31T06:51:00;1.93;;;1.37;;
60726;SDS011;46577;49.004;12.120;2023-10-31T06:53:26;6.30;;;1.37;;
60726;SDS011;46577;49.004;12.120;2023-10-31T06:55:52;1.90;;;0.93;;
60726;SDS011;46577;49.004;12.120;2023-10-31T06:58:18;1.30;;;0.80;;
60726;SDS011;46577;49.004;12.120;2023-10-31T07:00:44;1.93;;;1.33;;
60726;SDS011;46577;49.004;12.120;2023-10-31T07:03:10;3.83;;;0.90;;
60726;SDS011;46577;49.004;12.120;2023-10-31T07:05:40;2.90;;;1.50;;
60726;SDS011;46577;49.004;12.120;2023-10-31T07:08:06;6.00;;;1.50;;
60726;SDS011;46577;49.004;12.120;2023-10-31T07:10:32;1.90;;;1.03;;
60726;SDS011;46577;49.004;12.120;2023-10-31T07:12:58;2.30;;;1.00;;
60726;SDS011;46577;49.004;12.120;2023-10-31T07:15:27;1.17;;;1.07;;
60726;SDS011;46577;49.004;12.120;2023-10-31T07:17:53;3.33;;;0.77;;
60726;SDS011;46577;49.004;12.120;2023-10-31T07:20:19;4.67;;;1.13;;
60726;SDS011;46577;49.004;12.120;2023-10-31T07:22:45;1.63;;;1.30;;
60726;SDS011;46577;49.004;12.120;2023-10-31T07:25:11;4.27;;;1.00;;
60726;SDS011;46577;49.004;12.120;2023-10-31T07:27:37;0.90;;;0.80;;
60726;SDS011;46577;49.004;12.120;2023-10-31T07:30:03;1.33;;;1.00;;
60726;SDS011;46577;49.004;12.120;2023-10-31T07:32:30;1.53;;;0.77;;
60726;SDS011;46577;49.004;12.120;2023-10-31T07:34:56;3.40;;;0.70;;
60726;SDS011;46577;49.004;12.120;2023-10-31T07:37:22;2.10;;;0.63;;
60726;SDS011;46577;49.004;12.120;2023-10-31T07:39:48;1.50;;;1.00;;
60726;SDS011;46577;49.004;12.120;2023-10-31T07:42:16;2.07;;;0.80;;
60726;SDS011;46577;49.004;12.120;2023-10-31T07:44:42;6.53;;;1.00;;
60726;SDS011;46577;49.004;12.120;2023-10-31T07:47:08;1.67;;;1.00;;
60726;SDS011;46577;49.004;12.120;2023-10-31T07:49:34;4.63;;;1.00;;
60726;SDS011;46577;49.004;12.120;2023-10-31T07:52:00;0.83;;;0.73;;
60726;SDS011;46577;49.004;12.120;2023-10-31T07:54:26;2.87;;;1.20;;
60726;SDS011;46577;49.004;12.120;2023-10-31T07:56:52;1.40;;;0.70;;
60726;SDS011;46577;49.004;12.120;2023-10-31T07:59:18;0.93;;;0.60;;
60726;SDS011;46577;49.004;12.120;2023-10-31T08:01:44;0.63;;;0.60;;
60726;SDS011;46577;49.004;12.120;2023-10-31T08:04:10;2.17;;;0.97;;
60726;SDS011;46577;49.004;12.120;2023-10-31T08:06:36;1.00;;;0.90;;
60726;SDS011;46577;49.004;12.120;2023-10-31T08:09:02;2.30;;;1.27;;
60726;SDS011;46577;49.004;12.120;2023-10-31T08:11:28;1.90;;;0.90;;
60726;SDS011;46577;49.004;12.120;2023-10-31T08:13:55;4.07;;;1.30;;
60726;SDS011;46577;49.004;12.120;2023-10-31T08:16:21;2.30;;;1.00;;
60726;SDS011;46577;49.004;12.120;2023-10-31T08:18:48;1.87;;;1.10;;
60726;SDS011;46577;49.004;12.120;2023-10-31T08:21:14;2.00;;;1.23;;
60726;SDS011;46577;49.004;12.120;2023-10-31T08:23:40;0.73;;;0.70;;
60726;SDS011;46577;49.004;12.120;2023-10-31T08:26:07;3.37;;;0.90;;
60726;SDS011;46577;49.004;12.120;2023-10-31T08:28:33;3.77;;;1.10;;
60726;SDS011;46577;49.004;12.120;2023-10-31T08:30:59;4.03;;;1.40;;
60726;SDS011;46577;49.004;12.120;2023-10-31T08:33:25;1.57;;;1.10;;
60726;SDS011;46577;49.004;12.120;2023-10-31T08:35:51;4.00;;;2.33;;
60726;SDS011;46577;49.004;12.120;2023-10-31T08:38:17;0.70;;;0.70;;
60726;SDS011;46577;49.004;12.120;2023-10-31T08:40:43;2.73;;;1.57;;
60726;SDS011;46577;49.004;12.120;2023-10-31T08:43:09;3.30;;;2.00;;
60726;SDS011;46577;49.004;12.120;2023-10-31T08:45:35;3.87;;;1.93;;
60726;SDS011;46577;49.004;12.120;2023-10-31T08:48:01;4.37;;;1.57;;
60726;SDS011;46577;49.004;12.120;2023-10-31T08:50:28;2.13;;;1.00;;
60726;SDS011;46577;49.004;12.120;2023-10-31T08:52:54;4.57;;;1.60;;
60726;SDS011;46577;49.004;12.120;2023-10-31T08:55:20;3.57;;;0.90;;
60726;SDS011;46577;49.004;12.120;2023-10-31T08:57:46;1.90;;;0.80;;
60726;SDS011;46577;49.004;12.120;2023-10-31T09:00:12;0.70;;;0.67;;
60726;SDS011;46577;49.004;12.120;2023-10-31T09:02:39;1.33;;;0.80;;
60726;SDS011;46577;49.004;12.120;2023-10-31T09:05:05;2.00;;;0.80;;
60726;SDS011;46577;49.004;12.120;2023-10-31T09:07:31;0.83;;;0.83;;
60726;SDS011;46577;49.004;12.120;2023-10-31T09:09:57;0.87;;;0.60;;
60726;SDS011;46577;49.004;12.120;2023-10-31T09:12:23;1.23;;;0.80;;
60726;SDS011;46577;49.004;12.120;2023-10-31T09:14:49;1.27;;;0.80;;
60726;SDS011;46577;49.004;12.120;2023-10-31T09:17:15;2.07;;;0.80;;
60726;SDS011;46577;49.004;12.120;2023-10-31T09:19:41;6.27;;;0.83;;
60726;SDS011;46577;49.004;12.120;2023-10-31T09:22:07;2.50;;;0.80;;
60726;SDS011;46577;49.004;12.120;2023-10-31T09:24:33;2.57;;;1.27;;
60726;SDS011;46577;49.004;12.120;2023-10-31T09:26:59;0.90;;;0.90;;
60726;SDS011;46577;49.004;12.120;2023-10-31T09:29:25;1.27;;;0.80;;
60726;SDS011;46577;49.004;12.120;2023-10-31T09:31:51;0.87;;;0.73;;
60726;SDS011;46577;49.004;12.120;2023-10-31T09:34:17;0.60;;;0.60;;
60726;SDS011;46577;49.004;12.120;2023-10-31T09:36:43;1.07;;;0.87;;
60726;SDS011;46577;49.004;12.120;2023-10-31T09:39:09;2.40;;;0.73;;
60726;SDS011;46577;49.004;12.120;2023-10-31T09:41:35;1.03;;;0.87;;
60726;SDS011;46577;49.004;12.120;2023-10-31T09:44:01;2.40;;;0.87;;
60726;SDS011;46577;49.004;12.120;2023-10-31T09:46:28;2.80;;;0.87;;
60726;SDS011;46577;49.004;12.120;2023-10-31T09:48:55;1.90;;;0.83;;
60726;SDS011;46577;49.004;12.120;2023-10-31T09:51:21;1.73;;;1.03;;
60726;SDS011;46577;49.004;12.120;2023-10-31T09:53:47;1.83;;;0.80;;
60726;SDS011;46577;49.004;12.120;2023-10-31T09:56:14;2.40;;;0.80;;
60726;SDS011;46577;49.004;12.120;2023-10-31T09:58:41;3.60;;;1.23;;
60726;SDS011;46577;49.004;12.120;2023-10-31T10:01:07;2.73;;;1.00;;
60726;SDS011;46577;49.004;12.120;2023-10-31T10:03:34;1.07;;;0.80;;
60726;SDS011;46577;49.004;12.120;2023-10-31T10:05:59;0.67;;;0.60;;
60726;SDS011;46577;49.004;12.120;2023-10-31T10:08:26;1.20;;;0.50;;
60726;SDS011;46577;49.004;12.120;2023-10-31T10:10:52;0.50;;;0.50;;
60726;SDS011;46577;49.004;12.120;2023-10-31T10:13:18;3.43;;;0.60;;
60726;SDS011;46577;49.004;12.120;2023-10-31T10:15:45;3.37;;;0.70;;
60726;SDS011;46577;49.004;12.120;2023-10-31T10:18:23;0.93;;;0.73;;
60726;SDS011;46577;49.004;12.120;2023-10-31T10:21:00;0.73;;;0.63;;
60726;SDS011;46577;49.004;12.120;2023-10-31T10:23:26;1.70;;;0.80;;
60726;SDS011;46577;49.004;12.120;2023-10-31T10:25:55;1.80;;;0.60;;
60726;SDS011;46577;49.004;12.120;2023-10-31T10:28:21;2.60;;;0.90;;
60726;SDS011;46577;49.004;12.120;2023-10-31T10:30:49;3.53;;;0.70;;
60726;SDS011;46577;49.004;12.120;2023-10-31T10:33:16;2.30;;;0.60;;
60726;SDS011;46577;49.004;12.120;2023-10-31T10:35:42;1.80;;;0.80;;
60726;SDS011;46577;49.004;12.120;2023-10-31T10:38:12;2.80;;;0.80;;
60726;SDS011;46577;49.004;12.120;2023-10-31T10:40:39;3.47;;;0.67;;
60726;SDS011;46577;49.004;12.120;2023-10-31T10:43:07;1.07;;;0.60;;
60726;SDS011;46577;49.004;12.120;2023-10-31T10:45:36;0.97;;;0.53;;
60726;SDS011;46577;49.004;12.120;2023-10-31T10:48:04;1.07;;;0.60;;
60726;SDS011;46577;49.004;12.120;2023-10-31T10:50:31;5.20;;;1.13;;
60726;SDS011;46577;49.004;12.120;2023-10-31T10:53:04;1.10;;;0.70;;
60726;SDS011;46577;49.004;12.120;2023-10-31T10:55:34;1.37;;;0.60;;
60726;SDS011;46577;49.004;12.120;2023-10-31T10:58:05;0.73;;;0.40;;
60726;SDS011;46577;49.004;12.120;2023-10-31T11:00:31;2.37;;;0.90;;
60726;SDS011;46577;49.004;12.120;2023-10-31T11:02:57;2.30;;;0.63;;
60726;SDS011;46577;49.004;12.120;2023-10-31T11:05:25;1.13;;;0.80;;
60726;SDS011;46577;49.004;12.120;2023-10-31T11:07:52;6.00;;;0.90;;
60726;SDS011;46577;49.004;12.120;2023-10-31T11:10:20;0.80;;;0.70;;
60726;SDS011;46577;49.004;12.120;2023-10-31T11:12:47;1.87;;;0.70;;
60726;SDS011;46577;49.004;12.120;2023-10-31T11:15:15;2.60;;;1.00;;
60726;SDS011;46577;49.004;12.120;2023-10-31T11:17:42;2.10;;;0.60;;
60726;SDS011;46577;49.004;12.120;2023-10-31T11:20:10;0.93;;;0.80;;
60726;SDS011;46577;49.004;12.120;2023-10-31T11:22:36;0.80;;;0.80;;
60726;SDS011;46577;49.004;12.120;2023-10-31T11:25:03;1.40;;;0.70;;
60726;SDS011;46577;49.004;12.120;2023-10-31T11:27:29;3.30;;;0.70;;
60726;SDS011;46577;49.004;12.120;2023-10-31T11:30:00;1.63;;;0.93;;
60726;SDS011;46577;49.004;12.120;2023-10-31T11:32:26;2.20;;;0.50;;
60726;SDS011;46577;49.004;12.120;2023-10-31T11:34:52;1.17;;;0.60;;
60726;SDS011;46577;49.004;12.120;2023-10-31T11:37:31;1.10;;;0.70;;
60726;SDS011;46577;49.004;12.120;2023-10-31T11:42:40;1.53;;;0.80;;
60726;SDS011;46577;49.004;12.120;2023-10-31T11:45:09;1.00;;;0.70;;
60726;SDS011;46577;49.004;12.120;2023-10-31T11:47:48;0.87;;;0.77;;
60726;SDS011;46577;49.004;12.120;2023-10-31T11:50:15;1.10;;;1.00;;
60726;SDS011;46577;49.004;12.120;2023-10-31T11:52:41;1.50;;;1.00;;
60726;SDS011;46577;49.004;12.120;2023-10-31T11:55:10;4.63;;;1.07;;
60726;SDS011;46577;49.004;12.120;2023-10-31T11:57:39;2.57;;;1.00;;
60726;SDS011;46577;49.004;12.120;2023-10-31T12:00:05;2.40;;;0.93;;
60726;SDS011;46577;49.004;12.120;2023-10-31T12:02:37;0.60;;;0.60;;
60726;SDS011;46577;49.004;12.120;2023-10-31T12:05:07;2.00;;;0.80;;
60726;SDS011;46577;49.004;12.120;2023-10-31T12:07:43;1.93;;;0.77;;
60726;SDS011;46577;49.004;12.120;2023-10-31T12:10:09;3.90;;;2.70;;
60726;SDS011;46577;49.004;12.120;2023-10-31T12:12:35;5.13;;;1.00;;
60726;SDS011;46577;49.004;12.120;2023-10-31T12:15:07;2.00;;;0.90;;
60726;SDS011;46577;49.004;12.120;2023-10-31T12:17:34;1.27;;;0.83;;
60726;SDS011;46577;49.004;12.120;2023-10-31T12:20:06;1.10;;;0.80;;
60726;SDS011;46577;49.004;12.120;2023-10-31T12:22:33;2.60;;;1.20;;
60726;SDS011;46577;49.004;12.120;2023-10-31T12:27:47;1.00;;;0.90;;
60726;SDS011;46577;49.004;12.120;2023-10-31T12:30:15;2.60;;;0.73;;
60726;SDS011;46577;49.004;12.120;2023-10-31T12:32:41;4.40;;;0.70;;
60726;SDS011;46577;49.004;12.120;2023-10-31T12:35:11;2.23;;;0.70;;
60726;SDS011;46577;49.004;12.120;2023-10-31T12:37:44;1.73;;;0.90;;
60726;SDS011;46577;49.004;12.120;2023-10-31T12:40:11;6.57;;;0.90;;
60726;SDS011;46577;49.004;12.120;2023-10-31T12:42:37;1.17;;;0.60;;
60726;SDS011;46577;49.004;12.120;2023-10-31T12:45:04;0.70;;;0.60;;
60726;SDS011;46577;49.004;12.120;2023-10-31T12:47:30;1.10;;;0.80;;
60726;SDS011;46577;49.004;12.120;2023-10-31T12:50:15;2.03;;;1.20;;
60726;SDS011;46577;49.004;12.120;2023-10-31T12:55:15;4.63;;;1.37;;
60726;SDS011;46577;49.004;12.120;2023-10-31T12:57:41;1.10;;;0.60;;
60726;SDS011;46577;49.004;12.120;2023-10-31T13:00:08;2.80;;;0.70;;
60726;SDS011;46577;49.004;12.120;2023-10-31T13:02:37;1.07;;;0.80;;
60726;SDS011;46577;49.004;12.120;2023-10-31T13:05:13;0.87;;;0.70;;
60726;SDS011;46577;49.004;12.120;2023-10-31T13:07:41;1.37;;;0.67;;
60726;SDS011;46577;49.004;12.120;2023-10-31T13:10:13;1.47;;;0.90;;
60726;SDS011;46577;49.004;12.120;2023-10-31T13:12:43;6.63;;;1.53;;
60726;SDS011;46577;49.004;12.120;2023-10-31T13:15:09;4.30;;;1.10;;
60726;SDS011;46577;49.004;12.120;2023-10-31T13:17:36;1.30;;;0.80;;
60726;SDS011;46577;49.004;12.120;2023-10-31T13:20:03;5.70;;;0.80;;
60726;SDS011;46577;49.004;12.120;2023-10-31T13:22:31;2.40;;;0.80;;
60726;SDS011;46577;49.004;12.120;2023-10-31T13:24:57;2.40;;;0.70;;
60726;SDS011;46577;49.004;12.120;2023-10-31T13:27:23;29.27;;;4.50;;
60726;SDS011;46577;49.004;12.120;2023-10-31T13:29:49;21.13;;;3.40;;
60726;SDS011;46577;49.004;12.120;2023-10-31T13:32:16;13.70;;;1.90;;
60726;SDS011;46577;49.004;12.120;2023-10-31T13:34:42;6.50;;;1.30;;
60726;SDS011;46577;49.004;12.120;2023-10-31T13:37:08;6.20;;;1.30;;
60726;SDS011;46577;49.004;12.120;2023-10-31T13:39:34;3.43;;;0.93;;
60726;SDS011;46577;49.004;12.120;2023-10-31T13:41:59;8.50;;;1.33;;
60726;SDS011;46577;49.004;12.120;2023-10-31T13:44:25;3.90;;;0.90;;
60726;SDS011;46577;49.004;12.120;2023-10-31T13:46:51;9.20;;;1.20;;
60726;SDS011;46577;49.004;12.120;2023-10-31T13:49:17;2.10;;;1.33;;
60726;SDS011;46577;49.004;12.120;2023-10-31T13:51:43;2.03;;;1.10;;
60726;SDS011;46577;49.004;12.120;2023-10-31T13:54:09;2.73;;;0.93;;
60726;SDS011;46577;49.004;12.120;2023-10-31T13:56:35;5.70;;;1.10;;
60726;SDS011;46577;49.004;12.120;2023-10-31T13:59:02;5.43;;;1.60;;
60726;SDS011;46577;49.004;12.120;2023-10-31T14:01:28;3.17;;;0.90;;
60726;SDS011;46577;49.004;12.120;2023-10-31T14:03:54;1.10;;;1.00;;
60726;SDS011;46577;49.004;12.120;2023-10-31T14:06:20;3.60;;;1.20;;
60726;SDS011;46577;49.004;12.120;2023-10-31T14:08:46;4.80;;;1.60;;
60726;SDS011;46577;49.004;12.120;2023-10-31T14:11:12;8.80;;;1.73;;
60726;SDS011;46577;49.004;12.120;2023-10-31T14:13:38;3.20;;;1.40;;
60726;SDS011;46577;49.004;12.120;2023-10-31T14:16:05;5.63;;;1.73;;
60726;SDS011;46577;49.004;12.120;2023-10-31T14:18:32;2.53;;;1.10;;
60726;SDS011;46577;49.004;12.120;2023-10-31T14:20:58;4.43;;;0.97;;
60726;SDS011;46577;49.004;12.120;2023-10-31T14:23:24;3.60;;;1.30;;
60726;SDS011;46577;49.004;12.120;2023-10-31T14:25:50;1.33;;;1.03;;
60726;SDS011;46577;49.004;12.120;2023-10-31T14:28:17;2.50;;;1.03;;
60726;SDS011;46577;49.004;12.120;2023-10-31T14:30:43;1.13;;;0.70;;
60726;SDS011;46577;49.004;12.120;2023-10-31T14:33:09;1.80;;;0.83;;
60726;SDS011;46577;49.004;12.120;2023-10-31T14:35:35;1.57;;;0.87;;
60726;SDS011;46577;49.004;12.120;2023-10-31T14:38:01;2.20;;;0.97;;